sensor_id;sensor_type;location;lat;lon;timestamp;P1;durP1;ratioP1;P2;durP2;ratioP2
75408;SDS011;63979;55.644;37.734;2022-11-22T00:03:10;15.88;;;7.88;;
75408;SDS011;63979;55.644;37.734;2022-11-22T00:08:11;14.15;;;8.65;;
75408;SDS011;63979;55.644;37.734;2022-11-22T00:13:12;13.63;;;6.93;;
75408;SDS011;63979;55.644;37.734;2022-11-22T00:18:13;18.58;;;9.90;;
75408;SDS011;63979;55.644;37.734;2022-11-22T00:23:16;9.05;;;5.93;;
75408;SDS011;63979;55.644;37.734;2022-11-22T00:28:18;11.80;;;6.07;;
75408;SDS011;63979;55.644;37.734;2022-11-22T00:33:18;20.38;;;10.52;;
75408;SDS011;63979;55.644;37.734;2022-11-22T00:38:19;21.02;;;10.68;;
75408;SDS011;63979;55.644;37.734;2022-11-22T00:43:20;17.08;;;9.60;;
75408;SDS011;63979;55.644;37.734;2022-11-22T00:48:21;17.70;;;9.77;;
75408;SDS011;63979;55.644;37.734;2022-11-22T00:53:22;16.83;;;9.40;;
75408;SDS011;63979;55.644;37.734;2022-11-22T00:58:23;19.67;;;9.32;;
75408;SDS011;63979;55.644;37.734;2022-11-22T01:03:24;21.15;;;9.75;;
75408;SDS011;63979;55.644;37.734;2022-11-22T01:08:25;17.05;;;8.60;;
75408;SDS011;63979;55.644;37.734;2022-11-22T01:13:27;14.95;;;8.05;;
75408;SDS011;63979;55.644;37.734;2022-11-22T01:18:29;19.63;;;7.63;;
75408;SDS011;63979;55.644;37.734;2022-11-22T01:23:29;19.13;;;8.48;;
75408;SDS011;63979;55.644;37.734;2022-11-22T01:28:31;21.90;;;10.55;;
75408;SDS011;63979;55.644;37.734;2022-11-22T01:33:31;17.10;;;8.32;;
75408;SDS011;63979;55.644;37.734;2022-11-22T01:38:32;18.75;;;9.02;;
75408;SDS011;63979;55.644;37.734;2022-11-22T01:43:33;15.10;;;9.50;;
75408;SDS011;63979;55.644;37.734;2022-11-22T01:48:37;20.75;;;9.25;;
75408;SDS011;63979;55.644;37.734;2022-11-22T01:53:59;14.40;;;6.20;;
75408;SDS011;63979;55.644;37.734;2022-11-22T01:59:07;19.83;;;9.55;;
75408;SDS011;63979;55.644;37.734;2022-11-22T02:04:13;17.00;;;8.30;;
75408;SDS011;63979;55.644;37.734;2022-11-22T02:09:17;18.20;;;7.15;;
75408;SDS011;63979;55.644;37.734;2022-11-22T02:14:19;16.60;;;9.18;;
75408;SDS011;63979;55.644;37.734;2022-11-22T02:19:40;15.48;;;7.55;;
75408;SDS011;63979;55.644;37.734;2022-11-22T02:24:49;17.13;;;8.30;;
75408;SDS011;63979;55.644;37.734;2022-11-22T02:30:05;11.05;;;6.88;;
75408;SDS011;63979;55.644;37.734;2022-11-22T02:35:20;19.52;;;7.85;;
75408;SDS011;63979;55.644;37.734;2022-11-22T02:40:23;12.27;;;7.68;;
75408;SDS011;63979;55.644;37.734;2022-11-22T02:45:25;15.95;;;7.88;;
75408;SDS011;63979;55.644;37.734;2022-11-22T02:50:26;20.20;;;7.43;;
75408;SDS011;63979;55.644;37.734;2022-11-22T02:55:27;19.45;;;8.30;;
75408;SDS011;63979;55.644;37.734;2022-11-22T03:00:28;20.02;;;9.05;;
75408;SDS011;63979;55.644;37.734;2022-11-22T03:05:29;13.48;;;6.85;;
75408;SDS011;63979;55.644;37.734;2022-11-22T03:10:29;14.25;;;7.80;;
75408;SDS011;63979;55.644;37.734;2022-11-22T03:15:30;16.48;;;6.57;;
75408;SDS011;63979;55.644;37.734;2022-11-22T03:20:32;16.05;;;7.13;;
75408;SDS011;63979;55.644;37.734;2022-11-22T03:25:35;13.15;;;6.30;;
75408;SDS011;63979;55.644;37.734;2022-11-22T03:30:40;18.17;;;9.00;;
75408;SDS011;63979;55.644;37.734;2022-11-22T03:35:41;21.73;;;8.93;;
75408;SDS011;63979;55.644;37.734;2022-11-22T03:40:44;25.67;;;8.52;;
75408;SDS011;63979;55.644;37.734;2022-11-22T03:45:46;15.40;;;7.95;;
75408;SDS011;63979;55.644;37.734;2022-11-22T03:50:47;16.98;;;7.13;;
75408;SDS011;63979;55.644;37.734;2022-11-22T03:55:48;18.25;;;8.73;;
75408;SDS011;63979;55.644;37.734;2022-11-22T04:00:49;21.50;;;8.82;;
75408;SDS011;63979;55.644;37.734;2022-11-22T04:05:49;16.95;;;8.07;;
75408;SDS011;63979;55.644;37.734;2022-11-22T04:10:51;20.20;;;9.18;;
75408;SDS011;63979;55.644;37.734;2022-11-22T04:15:54;17.58;;;8.48;;
75408;SDS011;63979;55.644;37.734;2022-11-22T04:20:55;18.88;;;7.47;;
75408;SDS011;63979;55.644;37.734;2022-11-22T04:26:14;14.48;;;7.22;;
75408;SDS011;63979;55.644;37.734;2022-11-22T04:31:15;18.65;;;7.88;;
75408;SDS011;63979;55.644;37.734;2022-11-22T04:36:34;18.80;;;7.85;;
75408;SDS011;63979;55.644;37.734;2022-11-22T04:41:35;14.43;;;6.43;;
75408;SDS011;63979;55.644;37.734;2022-11-22T04:46:36;17.27;;;6.47;;
75408;SDS011;63979;55.644;37.734;2022-11-22T04:51:37;13.57;;;6.07;;
75408;SDS011;63979;55.644;37.734;2022-11-22T04:56:57;10.48;;;6.20;;
75408;SDS011;63979;55.644;37.734;2022-11-22T05:01:58;11.45;;;6.35;;
75408;SDS011;63979;55.644;37.734;2022-11-22T05:06:58;12.70;;;6.13;;
75408;SDS011;63979;55.644;37.734;2022-11-22T05:11:59;10.48;;;5.68;;
75408;SDS011;63979;55.644;37.734;2022-11-22T05:17:00;6.38;;;3.17;;
75408;SDS011;63979;55.644;37.734;2022-11-22T05:22:01;11.10;;;4.88;;
75408;SDS011;63979;55.644;37.734;2022-11-22T05:27:02;10.75;;;4.25;;
75408;SDS011;63979;55.644;37.734;2022-11-22T05:32:03;10.80;;;6.15;;
75408;SDS011;63979;55.644;37.734;2022-11-22T05:37:04;12.20;;;5.80;;
75408;SDS011;63979;55.644;37.734;2022-11-22T05:42:05;8.75;;;4.88;;
75408;SDS011;63979;55.644;37.734;2022-11-22T05:47:06;12.65;;;5.30;;
75408;SDS011;63979;55.644;37.734;2022-11-22T05:52:08;10.43;;;5.25;;
75408;SDS011;63979;55.644;37.734;2022-11-22T05:57:09;13.18;;;5.97;;
75408;SDS011;63979;55.644;37.734;2022-11-22T06:02:10;9.20;;;5.68;;
75408;SDS011;63979;55.644;37.734;2022-11-22T06:07:11;10.68;;;5.13;;
75408;SDS011;63979;55.644;37.734;2022-11-22T06:12:12;7.40;;;4.07;;
75408;SDS011;63979;55.644;37.734;2022-11-22T06:17:13;5.97;;;4.40;;
75408;SDS011;63979;55.644;37.734;2022-11-22T06:22:15;6.57;;;3.53;;
75408;SDS011;63979;55.644;37.734;2022-11-22T06:27:15;6.53;;;3.53;;
75408;SDS011;63979;55.644;37.734;2022-11-22T06:32:16;7.15;;;3.72;;
75408;SDS011;63979;55.644;37.734;2022-11-22T06:37:17;7.70;;;3.05;;
75408;SDS011;63979;55.644;37.734;2022-11-22T06:42:18;8.43;;;4.65;;
75408;SDS011;63979;55.644;37.734;2022-11-22T06:47:19;7.57;;;4.78;;
75408;SDS011;63979;55.644;37.734;2022-11-22T06:52:20;7.25;;;3.63;;
75408;SDS011;63979;55.644;37.734;2022-11-22T06:57:20;6.28;;;3.65;;
75408;SDS011;63979;55.644;37.734;2022-11-22T07:02:21;6.70;;;3.28;;
75408;SDS011;63979;55.644;37.734;2022-11-22T07:07:22;6.80;;;3.33;;
75408;SDS011;63979;55.644;37.734;2022-11-22T07:12:23;5.22;;;2.92;;
75408;SDS011;63979;55.644;37.734;2022-11-22T07:17:24;10.55;;;3.55;;
75408;SDS011;63979;55.644;37.734;2022-11-22T07:22:24;7.95;;;2.53;;
75408;SDS011;63979;55.644;37.734;2022-11-22T07:27:25;4.95;;;2.67;;
75408;SDS011;63979;55.644;37.734;2022-11-22T07:32:26;3.97;;;2.45;;
75408;SDS011;63979;55.644;37.734;2022-11-22T07:37:29;3.92;;;2.20;;
75408;SDS011;63979;55.644;37.734;2022-11-22T07:42:30;3.53;;;1.90;;
75408;SDS011;63979;55.644;37.734;2022-11-22T07:47:31;3.30;;;2.13;;
75408;SDS011;63979;55.644;37.734;2022-11-22T07:52:32;3.35;;;2.00;;
75408;SDS011;63979;55.644;37.734;2022-11-22T07:57:33;4.40;;;2.28;;
75408;SDS011;63979;55.644;37.734;2022-11-22T08:02:35;4.05;;;2.42;;
75408;SDS011;63979;55.644;37.734;2022-11-22T08:07:37;3.35;;;2.90;;
75408;SDS011;63979;55.644;37.734;2022-11-22T08:12:38;6.25;;;3.20;;
75408;SDS011;63979;55.644;37.734;2022-11-22T08:17:38;2.67;;;1.65;;
75408;SDS011;63979;55.644;37.734;2022-11-22T08:22:40;2.38;;;2.13;;
75408;SDS011;63979;55.644;37.734;2022-11-22T08:27:42;4.45;;;2.60;;
75408;SDS011;63979;55.644;37.734;2022-11-22T08:32:43;3.25;;;2.67;;
75408;SDS011;63979;55.644;37.734;2022-11-22T08:37:44;4.25;;;2.50;;
75408;SDS011;63979;55.644;37.734;2022-11-22T08:42:45;4.00;;;2.30;;
75408;SDS011;63979;55.644;37.734;2022-11-22T08:47:46;5.00;;;2.60;;
75408;SDS011;63979;55.644;37.734;2022-11-22T08:52:48;3.83;;;2.72;;
75408;SDS011;63979;55.644;37.734;2022-11-22T08:57:49;3.53;;;2.67;;
75408;SDS011;63979;55.644;37.734;2022-11-22T09:02:50;3.47;;;1.90;;
75408;SDS011;63979;55.644;37.734;2022-11-22T09:07:51;4.25;;;2.28;;
75408;SDS011;63979;55.644;37.734;2022-11-22T09:12:52;4.18;;;2.55;;
75408;SDS011;63979;55.644;37.734;2022-11-22T09:17:58;3.08;;;2.42;;
75408;SDS011;63979;55.644;37.734;2022-11-22T09:23:00;3.60;;;2.17;;
75408;SDS011;63979;55.644;37.734;2022-11-22T09:28:02;3.25;;;2.67;;
75408;SDS011;63979;55.644;37.734;2022-11-22T09:33:03;7.80;;;3.13;;
75408;SDS011;63979;55.644;37.734;2022-11-22T09:38:03;3.10;;;2.08;;
75408;SDS011;63979;55.644;37.734;2022-11-22T09:43:10;6.78;;;3.25;;
75408;SDS011;63979;55.644;37.734;2022-11-22T09:53:42;2.70;;;1.67;;
75408;SDS011;63979;55.644;37.734;2022-11-22T09:58:53;4.25;;;2.63;;
75408;SDS011;63979;55.644;37.734;2022-11-22T10:19:52;3.08;;;1.92;;
75408;SDS011;63979;55.644;37.734;2022-11-22T10:25:15;1.77;;;1.27;;
75408;SDS011;63979;55.644;37.734;2022-11-22T10:30:17;2.55;;;1.08;;
75408;SDS011;63979;55.644;37.734;2022-11-22T10:35:35;1.00;;;0.70;;
75408;SDS011;63979;55.644;37.734;2022-11-22T10:45:52;6.03;;;1.80;;
75408;SDS011;63979;55.644;37.734;2022-11-22T10:56:39;3.53;;;2.38;;
75408;SDS011;63979;55.644;37.734;2022-11-22T11:07:14;2.50;;;1.80;;
75408;SDS011;63979;55.644;37.734;2022-11-22T11:17:42;4.13;;;2.20;;
75408;SDS011;63979;55.644;37.734;2022-11-22T11:22:48;3.70;;;2.65;;
75408;SDS011;63979;55.644;37.734;2022-11-22T11:27:49;2.55;;;1.95;;
75408;SDS011;63979;55.644;37.734;2022-11-22T11:32:51;4.00;;;1.85;;
75408;SDS011;63979;55.644;37.734;2022-11-22T11:37:54;3.65;;;2.30;;
75408;SDS011;63979;55.644;37.734;2022-11-22T11:48:33;4.75;;;2.20;;
75408;SDS011;63979;55.644;37.734;2022-11-22T11:53:50;4.28;;;2.35;;
75408;SDS011;63979;55.644;37.734;2022-11-22T11:58:55;3.22;;;2.40;;
75408;SDS011;63979;55.644;37.734;2022-11-22T12:03:59;4.70;;;2.72;;
75408;SDS011;63979;55.644;37.734;2022-11-22T12:09:06;4.28;;;3.10;;
75408;SDS011;63979;55.644;37.734;2022-11-22T12:14:27;6.72;;;3.22;;
75408;SDS011;63979;55.644;37.734;2022-11-22T12:24:34;2.83;;;2.58;;
75408;SDS011;63979;55.644;37.734;2022-11-22T12:29:42;3.17;;;2.83;;
75408;SDS011;63979;55.644;37.734;2022-11-22T12:39:57;3.25;;;2.35;;
75408;SDS011;63979;55.644;37.734;2022-11-22T12:45:04;5.43;;;2.28;;
75408;SDS011;63979;55.644;37.734;2022-11-22T12:50:23;3.45;;;2.25;;
75408;SDS011;63979;55.644;37.734;2022-11-22T12:55:39;2.47;;;1.88;;
75408;SDS011;63979;55.644;37.734;2022-11-22T13:00:55;6.40;;;2.35;;
75408;SDS011;63979;55.644;37.734;2022-11-22T13:05:59;2.38;;;1.65;;
75408;SDS011;63979;55.644;37.734;2022-11-22T13:16:11;1.52;;;1.40;;
75408;SDS011;63979;55.644;37.734;2022-11-22T13:37:22;3.00;;;2.20;;
75408;SDS011;63979;55.644;37.734;2022-11-22T13:42:25;3.00;;;1.40;;
75408;SDS011;63979;55.644;37.734;2022-11-22T13:47:37;3.38;;;1.83;;
75408;SDS011;63979;55.644;37.734;2022-11-22T13:52:49;3.35;;;1.75;;
75408;SDS011;63979;55.644;37.734;2022-11-22T13:57:52;5.63;;;2.13;;
75408;SDS011;63979;55.644;37.734;2022-11-22T14:02:54;3.17;;;2.10;;
75408;SDS011;63979;55.644;37.734;2022-11-22T14:19:55;4.78;;;2.55;;
75408;SDS011;63979;55.644;37.734;2022-11-22T14:30:43;2.60;;;2.33;;
75408;SDS011;63979;55.644;37.734;2022-11-22T14:41:29;5.25;;;2.30;;
75408;SDS011;63979;55.644;37.734;2022-11-22T14:46:45;3.30;;;2.20;;
75408;SDS011;63979;55.644;37.734;2022-11-22T14:51:51;4.13;;;3.08;;
75408;SDS011;63979;55.644;37.734;2022-11-22T14:56:55;4.72;;;2.60;;
75408;SDS011;63979;55.644;37.734;2022-11-22T15:17:57;5.18;;;2.95;;
75408;SDS011;63979;55.644;37.734;2022-11-22T15:23:20;4.20;;;3.35;;
75408;SDS011;63979;55.644;37.734;2022-11-22T15:33:28;3.47;;;2.70;;
75408;SDS011;63979;55.644;37.734;2022-11-22T15:38:31;4.45;;;2.80;;
75408;SDS011;63979;55.644;37.734;2022-11-22T15:43:33;4.22;;;2.63;;
75408;SDS011;63979;55.644;37.734;2022-11-22T15:48:39;3.75;;;2.80;;
75408;SDS011;63979;55.644;37.734;2022-11-22T15:59:24;3.70;;;2.58;;
75408;SDS011;63979;55.644;37.734;2022-11-22T16:04:34;4.30;;;2.38;;
75408;SDS011;63979;55.644;37.734;2022-11-22T16:09:36;3.30;;;2.35;;
75408;SDS011;63979;55.644;37.734;2022-11-22T16:14:39;3.95;;;2.20;;
75408;SDS011;63979;55.644;37.734;2022-11-22T16:19:42;5.60;;;2.92;;
75408;SDS011;63979;55.644;37.734;2022-11-22T16:24:43;7.13;;;3.53;;
75408;SDS011;63979;55.644;37.734;2022-11-22T16:29:49;9.50;;;4.28;;
75408;SDS011;63979;55.644;37.734;2022-11-22T16:34:51;5.28;;;3.40;;
75408;SDS011;63979;55.644;37.734;2022-11-22T16:39:51;4.93;;;3.05;;
75408;SDS011;63979;55.644;37.734;2022-11-22T16:44:52;5.88;;;3.83;;
75408;SDS011;63979;55.644;37.734;2022-11-22T16:49:53;6.50;;;4.10;;
75408;SDS011;63979;55.644;37.734;2022-11-22T16:54:54;5.05;;;3.60;;
75408;SDS011;63979;55.644;37.734;2022-11-22T16:59:55;11.38;;;5.00;;
75408;SDS011;63979;55.644;37.734;2022-11-22T17:04:56;7.32;;;4.68;;
75408;SDS011;63979;55.644;37.734;2022-11-22T17:09:57;8.63;;;5.07;;
75408;SDS011;63979;55.644;37.734;2022-11-22T17:14:59;11.85;;;5.82;;
75408;SDS011;63979;55.644;37.734;2022-11-22T17:20:00;11.10;;;5.60;;
75408;SDS011;63979;55.644;37.734;2022-11-22T17:25:01;9.52;;;5.50;;
75408;SDS011;63979;55.644;37.734;2022-11-22T17:30:03;11.02;;;5.10;;
75408;SDS011;63979;55.644;37.734;2022-11-22T17:35:07;10.75;;;5.70;;
75408;SDS011;63979;55.644;37.734;2022-11-22T17:40:10;11.32;;;5.93;;
75408;SDS011;63979;55.644;37.734;2022-11-22T17:45:13;10.65;;;4.15;;
75408;SDS011;63979;55.644;37.734;2022-11-22T17:50:14;8.00;;;5.32;;
75408;SDS011;63979;55.644;37.734;2022-11-22T17:55:15;9.45;;;4.78;;
75408;SDS011;63979;55.644;37.734;2022-11-22T18:00:17;5.85;;;3.95;;
75408;SDS011;63979;55.644;37.734;2022-11-22T18:05:20;8.98;;;4.90;;
75408;SDS011;63979;55.644;37.734;2022-11-22T18:10:21;9.30;;;5.13;;
75408;SDS011;63979;55.644;37.734;2022-11-22T18:15:22;11.60;;;5.75;;
75408;SDS011;63979;55.644;37.734;2022-11-22T18:20:23;8.13;;;4.63;;
75408;SDS011;63979;55.644;37.734;2022-11-22T18:25:24;18.73;;;7.15;;
75408;SDS011;63979;55.644;37.734;2022-11-22T18:30:25;10.82;;;5.90;;
75408;SDS011;63979;55.644;37.734;2022-11-22T18:35:26;9.55;;;5.30;;
75408;SDS011;63979;55.644;37.734;2022-11-22T18:40:27;12.68;;;6.28;;
75408;SDS011;63979;55.644;37.734;2022-11-22T18:45:29;12.30;;;6.30;;
75408;SDS011;63979;55.644;37.734;2022-11-22T18:50:30;16.63;;;6.20;;
75408;SDS011;63979;55.644;37.734;2022-11-22T18:55:32;12.60;;;5.93;;
75408;SDS011;63979;55.644;37.734;2022-11-22T19:00:33;12.05;;;6.97;;
75408;SDS011;63979;55.644;37.734;2022-11-22T19:05:37;9.07;;;5.57;;
75408;SDS011;63979;55.644;37.734;2022-11-22T19:10:39;7.82;;;5.65;;
75408;SDS011;63979;55.644;37.734;2022-11-22T19:15:39;11.07;;;4.57;;
75408;SDS011;63979;55.644;37.734;2022-11-22T19:20:41;9.10;;;5.13;;
75408;SDS011;63979;55.644;37.734;2022-11-22T19:25:42;7.20;;;3.70;;
75408;SDS011;63979;55.644;37.734;2022-11-22T19:30:43;5.95;;;3.15;;
75408;SDS011;63979;55.644;37.734;2022-11-22T19:35:54;2.58;;;2.30;;
75408;SDS011;63979;55.644;37.734;2022-11-22T19:40:56;3.78;;;2.33;;
75408;SDS011;63979;55.644;37.734;2022-11-22T19:45:59;3.30;;;2.45;;
75408;SDS011;63979;55.644;37.734;2022-11-22T19:51:04;3.92;;;2.17;;
75408;SDS011;63979;55.644;37.734;2022-11-22T19:56:13;4.43;;;2.22;;
75408;SDS011;63979;55.644;37.734;2022-11-22T20:01:16;3.00;;;2.53;;
75408;SDS011;63979;55.644;37.734;2022-11-22T20:06:20;1.92;;;1.65;;
75408;SDS011;63979;55.644;37.734;2022-11-22T20:11:21;3.08;;;2.00;;
75408;SDS011;63979;55.644;37.734;2022-11-22T20:16:23;3.63;;;1.80;;
75408;SDS011;63979;55.644;37.734;2022-11-22T20:26:28;4.22;;;1.52;;
75408;SDS011;63979;55.644;37.734;2022-11-22T20:31:31;2.53;;;1.35;;
75408;SDS011;63979;55.644;37.734;2022-11-22T20:36:39;2.25;;;1.60;;
75408;SDS011;63979;55.644;37.734;2022-11-22T20:41:41;2.50;;;1.48;;
75408;SDS011;63979;55.644;37.734;2022-11-22T20:46:42;5.30;;;1.60;;
75408;SDS011;63979;55.644;37.734;2022-11-22T20:51:43;2.72;;;1.77;;
75408;SDS011;63979;55.644;37.734;2022-11-22T20:56:44;1.83;;;1.40;;
75408;SDS011;63979;55.644;37.734;2022-11-22T21:01:45;1.75;;;1.08;;
75408;SDS011;63979;55.644;37.734;2022-11-22T21:06:50;1.73;;;1.35;;
75408;SDS011;63979;55.644;37.734;2022-11-22T21:11:50;2.42;;;1.17;;
75408;SDS011;63979;55.644;37.734;2022-11-22T21:16:52;1.52;;;1.10;;
75408;SDS011;63979;55.644;37.734;2022-11-22T21:21:53;2.85;;;1.73;;
75408;SDS011;63979;55.644;37.734;2022-11-22T21:26:54;1.85;;;1.70;;
75408;SDS011;63979;55.644;37.734;2022-11-22T21:31:55;1.85;;;1.35;;
75408;SDS011;63979;55.644;37.734;2022-11-22T21:36:55;2.55;;;1.20;;
75408;SDS011;63979;55.644;37.734;2022-11-22T21:41:56;2.58;;;1.17;;
75408;SDS011;63979;55.644;37.734;2022-11-22T21:46:57;1.48;;;1.33;;
75408;SDS011;63979;55.644;37.734;2022-11-22T21:51:58;3.38;;;1.75;;
75408;SDS011;63979;55.644;37.734;2022-11-22T21:56:59;3.50;;;2.17;;
75408;SDS011;63979;55.644;37.734;2022-11-22T22:02:00;1.20;;;1.10;;
75408;SDS011;63979;55.644;37.734;2022-11-22T22:07:01;5.30;;;2.45;;
75408;SDS011;63979;55.644;37.734;2022-11-22T22:12:02;2.42;;;1.88;;
75408;SDS011;63979;55.644;37.734;2022-11-22T22:17:03;2.25;;;1.70;;
75408;SDS011;63979;55.644;37.734;2022-11-22T22:22:04;3.92;;;2.20;;
75408;SDS011;63979;55.644;37.734;2022-11-22T22:27:05;3.60;;;2.58;;
75408;SDS011;63979;55.644;37.734;2022-11-22T22:32:06;4.97;;;2.50;;
75408;SDS011;63979;55.644;37.734;2022-11-22T22:37:08;3.05;;;2.35;;
75408;SDS011;63979;55.644;37.734;2022-11-22T22:42:12;3.38;;;2.20;;
75408;SDS011;63979;55.644;37.734;2022-11-22T22:47:13;6.88;;;2.70;;
75408;SDS011;63979;55.644;37.734;2022-11-22T22:52:14;3.78;;;2.40;;
75408;SDS011;63979;55.644;37.734;2022-11-22T22:57:15;8.25;;;2.65;;
75408;SDS011;63979;55.644;37.734;2022-11-22T23:02:16;3.17;;;2.00;;
75408;SDS011;63979;55.644;37.734;2022-11-22T23:13:52;4.25;;;2.10;;
75408;SDS011;63979;55.644;37.734;2022-11-22T23:18:53;3.85;;;2.70;;
75408;SDS011;63979;55.644;37.734;2022-11-22T23:23:54;5.50;;;3.53;;
75408;SDS011;63979;55.644;37.734;2022-11-22T23:28:54;4.45;;;2.53;;
75408;SDS011;63979;55.644;37.734;2022-11-22T23:33:57;4.20;;;2.97;;
75408;SDS011;63979;55.644;37.734;2022-11-22T23:43:59;4.97;;;2.92;;
75408;SDS011;63979;55.644;37.734;2022-11-22T23:49:01;4.57;;;3.25;;
75408;SDS011;63979;55.644;37.734;2022-11-22T23:54:03;3.70;;;3.40;;
75408;SDS011;63979;55.644;37.734;2022-11-22T23:59:05;5.75;;;3.30;;
